Terminal Aerodrome Forecast
Issued by NWS

Home | Current Version | Previous Version | Text Only | Print | Product List | Glossary On
Versions: 1 2 3 4 5 6 7 8 9 10 11 12 13 14 15 16 17
000
FTUS43 KDDC 192320
TAFHYS
TAF
KHYS 192320Z 2000/2024 07010KT P6SM OVC022
     FM200600 01013KT P6SM OVC010
     FM200900 36017G27KT P6SM OVC020
     FM201200 36017G27KT P6SM OVC030
     FM201500 35015G25KT P6SM BKN030
     FM201800 36010KT P6SM SKC=

USA.gov is the U.S. government's official web portal to all federal, state and local government web resources and services.